createdAt,value
2023-03-26T00:01:00.877Z,84.46
2023-03-26T00:02:04.429Z,84.61
2023-03-26T00:03:08.815Z,84.68
2023-03-26T00:04:12.914Z,84.75
2023-03-26T00:05:17.082Z,84.85
2023-03-26T00:06:23.859Z,84.61
2023-03-26T00:07:28.966Z,84.79
2023-03-26T00:08:33.110Z,84.91
2023-03-26T00:09:37.166Z,84.97
2023-03-26T00:10:41.349Z,85.15
2023-03-26T00:11:47.325Z,84.93
2023-03-26T00:12:50.919Z,85.24
2023-03-26T00:13:57.474Z,85.06
2023-03-26T00:15:01.548Z,85.33
2023-03-26T00:16:05.863Z,84.80
2023-03-26T00:17:09.905Z,84.81
2023-03-26T00:18:14.034Z,84.73
2023-03-26T00:19:17.933Z,84.79
2023-03-26T00:20:21.410Z,85.06
2023-03-26T00:21:29.836Z,85.00
2023-03-26T00:22:33.577Z,85.24
2023-03-26T00:23:37.271Z,85.05
2023-03-26T00:24:41.347Z,84.83
2023-03-26T00:25:47.573Z,84.94
2023-03-26T00:26:54.265Z,84.87
2023-03-26T00:27:58.402Z,84.91
2023-03-26T00:29:04.502Z,84.63
2023-03-26T00:30:08.891Z,84.65
2023-03-26T00:31:14.441Z,84.41
2023-03-26T00:32:18.242Z,84.41
2023-03-26T00:33:23.489Z,84.94
2023-03-26T00:34:27.535Z,85.10
2023-03-26T00:35:31.255Z,84.90
2023-03-26T00:36:36.822Z,85.00
2023-03-26T00:37:44.076Z,84.70
2023-03-26T00:38:48.605Z,84.65
2023-03-26T00:39:52.313Z,84.85
2023-03-26T00:41:06.620Z,84.91
2023-03-26T00:42:11.172Z,84.88
2023-03-26T00:43:22.084Z,84.97
2023-03-26T00:44:25.600Z,85.10
2023-03-26T00:45:29.269Z,85.45
2023-03-26T00:46:33.314Z,84.83
2023-03-26T00:47:37.311Z,85.26
2023-03-26T00:48:45.773Z,85.00
2023-03-26T00:49:50.080Z,84.95
2023-03-26T00:50:54.740Z,84.86
2023-03-26T00:51:58.886Z,85.07
2023-03-26T00:53:03.666Z,85.17
2023-03-26T00:54:08.451Z,84.77
2023-03-26T00:55:12.198Z,84.96
2023-03-26T00:56:16.615Z,84.77
2023-03-26T00:57:34.950Z,84.73
2023-03-26T00:58:39.910Z,84.65
2023-03-26T00:59:43.945Z,84.73
2023-03-26T01:00:58.725Z,84.72
2023-03-26T01:02:03.421Z,84.71
2023-03-26T01:03:07.859Z,84.85
2023-03-26T01:04:31.440Z,84.94
2023-03-26T01:05:35.640Z,84.79
2023-03-26T01:06:42.876Z,84.90
2023-03-26T01:07:47.161Z,84.95
2023-03-26T01:08:52.098Z,84.87
2023-03-26T01:09:59.594Z,85.10
2023-03-26T01:11:15.598Z,84.93
2023-03-26T01:12:23.211Z,85.33
2023-03-26T01:13:26.850Z,84.75
2023-03-26T01:14:30.385Z,85.06
2023-03-26T01:15:34.571Z,85.19
2023-03-26T01:16:46.696Z,85.53
2023-03-26T01:17:52.637Z,85.49
2023-03-26T01:18:59.705Z,85.36
2023-03-26T01:20:16.712Z,85.42
2023-03-26T01:21:29.477Z,85.44
2023-03-26T01:22:35.012Z,85.86
2023-03-26T01:23:52.929Z,85.88
2023-03-26T01:24:59.726Z,85.68
2023-03-26T01:26:32.470Z,85.68
2023-03-26T01:27:50.660Z,85.33
2023-03-26T01:28:57.196Z,85.51
2023-03-26T01:30:11.492Z,85.38
2023-03-26T01:31:31.555Z,85.26
2023-03-26T01:32:44.947Z,85.50
2023-03-26T01:33:56.543Z,85.37
2023-03-26T01:35:27.531Z,85.45
2023-03-26T01:36:57.950Z,85.51
2023-03-26T01:38:01.218Z,85.30
2023-03-26T01:39:28.508Z,85.46
2023-03-26T01:40:43.659Z,84.56
2023-03-26T01:41:57.037Z,85.24
2023-03-26T01:43:26.791Z,85.27
2023-03-26T01:44:45.693Z,85.52
2023-03-26T01:45:49.671Z,85.63
2023-03-26T01:46:53.598Z,85.61
2023-03-26T01:47:57.734Z,85.55
2023-03-26T01:49:01.988Z,85.62
2023-03-26T01:50:06.490Z,85.70
2023-03-26T01:51:11.033Z,85.40
2023-03-26T01:52:18.990Z,84.96
2023-03-26T01:53:22.932Z,85.16
2023-03-26T01:54:28.743Z,85.03
2023-03-26T01:55:51.290Z,85.10
2023-03-26T01:57:13.127Z,84.58
2023-03-26T01:58:53.263Z,85.29
2023-03-26T02:00:19.168Z,85.46
2023-03-26T02:01:51.272Z,85.11
2023-03-26T02:03:19.123Z,85.22
2023-03-26T02:04:26.040Z,85.55
2023-03-26T02:05:45.280Z,85.54
2023-03-26T02:06:52.366Z,85.89
2023-03-26T02:08:21.998Z,86.03
2023-03-26T02:09:27.111Z,85.86
2023-03-26T02:10:33.210Z,86.00
2023-03-26T02:11:37.177Z,86.10
2023-03-26T02:12:42.341Z,86.20
2023-03-26T02:13:47.232Z,86.26
2023-03-26T02:14:50.949Z,86.35
2023-03-26T02:16:02.382Z,86.43
2023-03-26T02:17:06.711Z,86.43
2023-03-26T02:18:14.473Z,86.59
2023-03-26T02:19:22.442Z,86.70
2023-03-26T02:20:30.650Z,86.21
2023-03-26T02:21:34.603Z,86.30
2023-03-26T02:22:46.354Z,86.58
2023-03-26T02:23:58.737Z,86.55
2023-03-26T02:25:02.727Z,86.82
2023-03-26T02:26:08.107Z,86.85
2023-03-26T02:27:19.400Z,86.98
2023-03-26T02:28:23.474Z,85.88
2023-03-26T02:29:27.561Z,85.31
2023-03-26T02:30:31.338Z,84.76
2023-03-26T02:31:36.890Z,84.76
2023-03-26T02:32:41.103Z,84.47
2023-03-26T02:33:48.508Z,84.86
2023-03-26T02:34:52.756Z,85.32
2023-03-26T02:36:00.386Z,85.47
2023-03-26T02:37:05.178Z,85.31
2023-03-26T02:38:11.149Z,85.34
2023-03-26T02:39:15.734Z,85.32
2023-03-26T02:40:26.795Z,85.20
2023-03-26T02:41:30.610Z,85.16
2023-03-26T02:42:39.196Z,85.00
2023-03-26T02:43:42.834Z,85.22
2023-03-26T02:44:50.900Z,85.07
2023-03-26T02:45:55.004Z,85.26
2023-03-26T02:47:16.994Z,85.04
2023-03-26T02:48:30.351Z,84.71
2023-03-26T02:49:47.856Z,84.94
2023-03-26T02:51:11.683Z,85.14
2023-03-26T02:52:23.580Z,85.09
2023-03-26T02:53:32.436Z,85.16
2023-03-26T02:54:55.222Z,85.33
2023-03-26T02:56:02.521Z,85.29
2023-03-26T02:57:14.173Z,85.03
2023-03-26T02:58:35.224Z,84.43
2023-03-26T02:59:39.335Z,84.10
2023-03-26T03:01:03.992Z,83.93
2023-03-26T03:02:15.687Z,84.80
2023-03-26T03:03:19.935Z,85.18
2023-03-26T03:04:41.937Z,85.02
2023-03-26T03:05:46.041Z,84.88
2023-03-26T03:07:19.128Z,84.96
2023-03-26T03:08:24.810Z,84.59
2023-03-26T03:09:40.751Z,84.41
2023-03-26T03:11:15.087Z,84.56
2023-03-26T03:12:23.760Z,84.08
2023-03-26T03:13:27.588Z,84.26
2023-03-26T03:14:32.288Z,84.43
2023-03-26T03:15:39.866Z,84.29
2023-03-26T03:16:43.951Z,84.35
2023-03-26T03:17:48.827Z,84.39
2023-03-26T03:18:58.087Z,83.92
2023-03-26T03:20:22.686Z,83.77
2023-03-26T03:21:29.711Z,84.42
2023-03-26T03:22:34.571Z,84.50
2023-03-26T03:23:38.337Z,84.11
2023-03-26T03:24:52.969Z,84.33
2023-03-26T03:25:57.842Z,84.23
2023-03-26T03:27:01.631Z,84.54
2023-03-26T03:28:15.873Z,84.39
2023-03-26T03:29:20.133Z,83.87
2023-03-26T03:30:24.859Z,83.83
2023-03-26T03:31:49.133Z,83.36
2023-03-26T03:33:13.745Z,83.22
2023-03-26T03:34:17.869Z,83.35
2023-03-26T03:35:28.286Z,83.36
2023-03-26T03:36:34.333Z,83.32
2023-03-26T03:37:43.624Z,83.12
2023-03-26T03:38:47.440Z,83.06
2023-03-26T03:39:55.089Z,83.27
2023-03-26T03:41:01.672Z,82.97
2023-03-26T03:42:07.322Z,83.22
2023-03-26T03:43:12.044Z,83.13
2023-03-26T03:44:27.489Z,82.87
2023-03-26T03:45:31.885Z,83.43
2023-03-26T03:46:44.393Z,83.26
2023-03-26T03:47:48.604Z,82.96
2023-03-26T03:48:58.457Z,82.63
2023-03-26T03:50:07.819Z,83.16
2023-03-26T03:51:13.303Z,82.32
2023-03-26T03:52:25.906Z,82.46
2023-03-26T03:53:30.105Z,82.06
2023-03-26T03:54:37.039Z,82.11
2023-03-26T03:56:03.535Z,82.09
2023-03-26T03:57:31.809Z,82.15
2023-03-26T03:58:38.478Z,82.13
2023-03-26T03:59:49.864Z,82.24
2023-03-26T04:01:01.312Z,82.27
2023-03-26T04:02:30.807Z,82.35
2023-03-26T04:03:39.904Z,81.99
2023-03-26T04:04:51.077Z,82.49
2023-03-26T04:05:57.481Z,82.04
2023-03-26T04:07:03.528Z,82.48
2023-03-26T04:08:14.182Z,82.45
2023-03-26T04:09:24.339Z,82.04
2023-03-26T04:10:31.285Z,82.32
2023-03-26T04:11:53.499Z,82.25
2023-03-26T04:13:12.050Z,82.28
2023-03-26T04:14:34.096Z,82.27
2023-03-26T04:15:55.546Z,82.40
2023-03-26T04:17:00.400Z,82.37
2023-03-26T04:18:11.363Z,82.26
2023-03-26T04:19:18.793Z,82.51
2023-03-26T04:20:22.750Z,82.74
2023-03-26T04:21:31.296Z,82.75
2023-03-26T04:22:35.195Z,82.45
2023-03-26T04:23:43.375Z,82.34
2023-03-26T04:25:08.237Z,82.39
2023-03-26T04:26:16.883Z,82.14
2023-03-26T04:27:39.325Z,82.08
2023-03-26T04:29:00.806Z,82.11
2023-03-26T04:30:07.894Z,81.97
2023-03-26T04:31:14.820Z,81.66
2023-03-26T04:32:25.647Z,81.81
2023-03-26T04:33:34.993Z,81.87
2023-03-26T04:34:39.430Z,81.95
2023-03-26T04:35:51.313Z,81.74
2023-03-26T04:36:56.856Z,81.91
2023-03-26T04:38:07.988Z,81.96
2023-03-26T04:39:15.629Z,81.71
2023-03-26T04:40:47.970Z,81.58
2023-03-26T04:42:14.991Z,82.04
2023-03-26T04:43:32.237Z,81.85
2023-03-26T04:44:55.117Z,81.99
2023-03-26T04:45:58.886Z,81.86
2023-03-26T04:47:04.604Z,81.72
2023-03-26T04:48:17.640Z,81.43
2023-03-26T04:49:21.766Z,81.50
2023-03-26T04:50:25.884Z,81.39
2023-03-26T04:51:35.991Z,81.45
2023-03-26T04:52:40.066Z,81.86
2023-03-26T04:54:21.123Z,81.57
2023-03-26T04:55:33.089Z,81.67
2023-03-26T04:56:49.120Z,81.38
2023-03-26T04:58:06.130Z,81.35
2023-03-26T04:59:35.767Z,81.25
2023-03-26T05:00:43.849Z,81.48
2023-03-26T05:01:47.690Z,80.88
2023-03-26T05:02:56.640Z,81.17
2023-03-26T05:04:01.192Z,81.33
2023-03-26T05:05:06.368Z,81.04
2023-03-26T05:06:11.456Z,81.34
2023-03-26T05:07:20.355Z,81.21
2023-03-26T05:08:29.716Z,81.58
2023-03-26T05:09:33.779Z,81.77
2023-03-26T05:10:54.067Z,82.06
2023-03-26T05:12:05.678Z,82.19
2023-03-26T05:13:20.887Z,83.14
2023-03-26T05:14:28.152Z,82.55
2023-03-26T05:15:32.866Z,82.88
2023-03-26T05:16:43.811Z,82.84
2023-03-26T05:17:48.989Z,82.80
2023-03-26T05:19:03.125Z,83.10
2023-03-26T05:20:24.208Z,81.76
2023-03-26T05:21:29.202Z,82.22
2023-03-26T05:22:33.781Z,82.41
2023-03-26T05:23:50.655Z,82.31
2023-03-26T05:24:55.971Z,82.36
2023-03-26T05:26:00.126Z,82.32
2023-03-26T05:27:04.385Z,82.53
2023-03-26T05:28:11.633Z,82.65
2023-03-26T05:29:24.933Z,82.61
2023-03-26T05:30:30.692Z,82.69
2023-03-26T05:31:37.391Z,82.24
2023-03-26T05:32:41.402Z,82.34
2023-03-26T05:33:45.837Z,82.16
2023-03-26T05:34:49.946Z,82.22
2023-03-26T05:36:16.458Z,82.54
2023-03-26T05:37:25.797Z,83.01
2023-03-26T05:38:40.204Z,83.11
2023-03-26T05:39:48.470Z,82.90
2023-03-26T05:41:14.735Z,83.23
2023-03-26T05:42:25.203Z,83.60
2023-03-26T05:43:49.601Z,83.53
2023-03-26T05:44:57.504Z,82.99
2023-03-26T05:46:04.572Z,83.91
2023-03-26T05:47:09.366Z,84.28
2023-03-26T05:48:13.045Z,83.92
2023-03-26T05:49:17.176Z,83.20
2023-03-26T05:50:20.978Z,83.93
2023-03-26T05:51:25.797Z,84.37
2023-03-26T05:52:45.866Z,84.42
2023-03-26T05:54:08.130Z,84.70
2023-03-26T05:55:37.995Z,84.26
2023-03-26T05:57:01.501Z,84.21
2023-03-26T05:58:23.409Z,83.18
2023-03-26T05:59:45.585Z,83.49
2023-03-26T06:01:21.378Z,83.88
2023-03-26T06:03:01.477Z,83.83
2023-03-26T06:04:23.758Z,83.40
2023-03-26T06:05:47.836Z,83.94
2023-03-26T06:07:04.853Z,83.51
2023-03-26T06:08:09.452Z,83.45
2023-03-26T06:09:14.958Z,83.90
2023-03-26T06:10:19.691Z,83.57
2023-03-26T06:11:23.710Z,83.90
2023-03-26T06:12:27.862Z,83.76
2023-03-26T06:13:31.536Z,83.62
2023-03-26T06:14:35.875Z,83.49
2023-03-26T06:15:47.592Z,83.27
2023-03-26T06:17:02.351Z,83.45
2023-03-26T06:18:11.977Z,83.09
2023-03-26T06:19:37.474Z,82.94
2023-03-26T06:20:56.374Z,82.70
2023-03-26T06:22:19.086Z,82.69
2023-03-26T06:23:45.385Z,82.57
2023-03-26T06:25:07.997Z,82.22
2023-03-26T06:26:28.635Z,82.46
2023-03-26T06:27:39.967Z,82.19
2023-03-26T06:29:02.116Z,82.36
2023-03-26T06:30:36.569Z,82.18
2023-03-26T06:32:09.172Z,82.36
2023-03-26T06:33:25.011Z,82.59
2023-03-26T06:34:29.815Z,82.54
2023-03-26T06:35:34.028Z,82.26
2023-03-26T06:36:38.245Z,82.44
2023-03-26T06:37:43.009Z,82.06
2023-03-26T06:38:46.904Z,82.02
2023-03-26T06:39:50.988Z,82.23
2023-03-26T06:41:06.524Z,81.93
2023-03-26T06:43:06.494Z,81.81
2023-03-26T06:44:12.533Z,81.42
2023-03-26T06:45:36.879Z,81.32
2023-03-26T06:46:59.208Z,81.35
2023-03-26T06:48:21.830Z,80.91
2023-03-26T06:49:46.544Z,80.59
2023-03-26T06:51:05.573Z,80.48
2023-03-26T06:52:28.141Z,80.21
2023-03-26T06:55:19.624Z,76.16
2023-03-26T06:56:40.655Z,74.19
2023-03-26T06:58:04.530Z,71.66
2023-03-26T06:59:31.414Z,69.77
2023-03-26T07:00:56.133Z,68.12
2023-03-26T07:02:18.968Z,67.00
2023-03-26T07:03:41.517Z,64.33
2023-03-26T07:05:04.245Z,63.16
2023-03-26T07:06:26.762Z,61.25
2023-03-26T07:07:48.820Z,61.48
2023-03-26T07:09:10.997Z,60.75
2023-03-26T07:10:47.213Z,59.88
2023-03-26T07:12:09.317Z,60.72
2023-03-26T07:13:41.416Z,61.64
2023-03-26T07:15:04.842Z,61.92
2023-03-26T07:18:05.492Z,63.54
2023-03-26T07:19:11.454Z,64.10
2023-03-26T07:20:17.565Z,64.04
2023-03-26T07:21:23.247Z,63.43
2023-03-26T07:22:28.655Z,62.52
2023-03-26T07:23:41.436Z,61.01
2023-03-26T07:25:04.871Z,58.63
2023-03-26T07:26:52.592Z,55.93
2023-03-26T07:28:09.667Z,55.28
2023-03-26T07:29:43.108Z,53.48
2023-03-26T07:31:42.680Z,49.06
2023-03-26T07:33:21.654Z,46.23
2023-03-26T07:34:44.768Z,46.12
2023-03-26T07:36:07.361Z,45.65
2023-03-26T07:37:38.377Z,44.20
2023-03-26T07:39:28.155Z,40.97
2023-03-26T07:41:08.809Z,41.71
2023-03-26T07:42:35.068Z,39.44
2023-03-26T07:45:42.976Z,39.42
2023-03-26T07:47:41.922Z,39.10
2023-03-26T07:48:59.251Z,40.11
2023-03-26T07:50:30.848Z,40.68
2023-03-26T07:51:38.194Z,40.65
2023-03-26T07:52:50.502Z,40.46
2023-03-26T07:54:11.355Z,40.59
2023-03-26T07:55:18.596Z,39.88
2023-03-26T07:56:37.454Z,38.86
2023-03-26T07:58:16.481Z,37.62
2023-03-26T08:00:02.880Z,36.48
2023-03-26T08:01:58.906Z,36.12
2023-03-26T08:03:17.068Z,35.94
2023-03-26T08:04:55.208Z,34.54
2023-03-26T08:06:40.731Z,34.03
2023-03-26T08:08:26.768Z,32.46
2023-03-26T08:10:03.790Z,32.86
2023-03-26T08:11:49.221Z,31.98
2023-03-26T08:13:16.626Z,30.53
2023-03-26T08:14:59.860Z,29.74
2023-03-26T08:16:20.730Z,29.81
2023-03-26T08:17:40.620Z,29.90
2023-03-26T08:19:07.135Z,29.92
2023-03-26T08:20:28.937Z,30.18
2023-03-26T08:21:37.190Z,31.33
2023-03-26T08:22:43.427Z,30.37
2023-03-26T08:23:57.351Z,30.99
2023-03-26T08:25:17.330Z,30.95
2023-03-26T08:26:28.132Z,32.70
2023-03-26T08:28:01.685Z,32.56
2023-03-26T08:29:42.720Z,32.77
2023-03-26T08:30:47.590Z,32.29
2023-03-26T08:31:51.600Z,33.11
2023-03-26T08:33:13.140Z,33.87
2023-03-26T08:34:17.249Z,34.45
2023-03-26T08:35:21.596Z,35.79
2023-03-26T08:36:25.683Z,36.36
2023-03-26T08:37:29.864Z,35.65
2023-03-26T08:38:33.616Z,36.76
2023-03-26T08:39:39.889Z,37.71
2023-03-26T08:41:15.682Z,38.33
2023-03-26T08:43:07.574Z,37.30
2023-03-26T08:44:32.104Z,35.09
2023-03-26T08:45:43.891Z,32.57
2023-03-26T08:46:50.490Z,32.18
2023-03-26T08:48:30.870Z,33.14
2023-03-26T08:49:58.318Z,34.97
2023-03-26T08:51:20.490Z,35.82
2023-03-26T08:52:45.706Z,36.67
2023-03-26T08:54:13.680Z,36.53
2023-03-26T08:55:44.614Z,36.97
2023-03-26T08:56:54.293Z,37.14
2023-03-26T08:58:34.450Z,39.07
2023-03-26T08:59:41.320Z,39.56
2023-03-26T09:00:56.909Z,40.27
2023-03-26T09:02:22.878Z,40.50
2023-03-26T09:04:01.035Z,38.60
2023-03-26T09:05:31.143Z,36.59
2023-03-26T09:06:40.629Z,36.60
2023-03-26T09:07:47.265Z,36.94
2023-03-26T09:09:19.222Z,36.44
2023-03-26T09:10:45.934Z,36.78
2023-03-26T09:11:57.930Z,37.83
2023-03-26T09:13:33.579Z,38.68
2023-03-26T09:14:46.049Z,38.46
2023-03-26T09:16:15.639Z,36.68
2023-03-26T09:17:40.357Z,36.58
2023-03-26T09:18:54.648Z,35.06
2023-03-26T09:20:19.450Z,34.58
2023-03-26T09:21:51.464Z,33.54
2023-03-26T09:23:06.660Z,33.85
2023-03-26T09:24:30.948Z,34.30
2023-03-26T09:25:40.431Z,34.87
2023-03-26T09:26:48.884Z,34.29
2023-03-26T09:28:21.321Z,34.10
2023-03-26T09:29:44.547Z,35.85
2023-03-26T09:31:24.632Z,36.84
2023-03-26T09:33:06.304Z,39.30
2023-03-26T09:34:31.662Z,38.38
2023-03-26T09:36:02.369Z,35.86
2023-03-26T09:37:19.432Z,35.60
2023-03-26T09:39:05.237Z,33.72
2023-03-26T09:40:23.194Z,33.25
2023-03-26T09:41:42.376Z,33.50
2023-03-26T09:42:53.289Z,32.62
2023-03-26T09:44:21.842Z,31.63
2023-03-26T09:45:59.564Z,30.61
2023-03-26T09:47:28.645Z,32.04
2023-03-26T09:48:32.687Z,30.72
2023-03-26T09:50:03.840Z,31.24
2023-03-26T09:51:27.719Z,32.91
2023-03-26T09:52:52.368Z,34.09
2023-03-26T09:54:07.344Z,35.50
2023-03-26T09:55:44.943Z,38.46
2023-03-26T09:57:00.497Z,39.99
2023-03-26T09:58:33.919Z,40.29
2023-03-26T09:59:39.922Z,41.30
2023-03-26T10:00:55.650Z,39.56
2023-03-26T10:02:14.359Z,40.57
2023-03-26T10:03:21.877Z,39.71
2023-03-26T10:04:40.614Z,36.83
2023-03-26T10:06:13.171Z,32.87
2023-03-26T10:07:54.279Z,32.33
2023-03-26T10:09:20.001Z,31.05
2023-03-26T10:11:05.051Z,32.04
2023-03-26T10:12:26.466Z,30.27
2023-03-26T10:14:00.464Z,29.41
2023-03-26T10:15:12.919Z,29.33
2023-03-26T10:16:51.281Z,29.40
2023-03-26T10:18:34.594Z,28.96
2023-03-26T10:19:56.417Z,28.03
2023-03-26T10:21:19.352Z,26.54
2023-03-26T10:22:46.989Z,25.25
2023-03-26T10:23:57.591Z,25.44
2023-03-26T10:25:23.762Z,24.99
2023-03-26T10:27:08.307Z,25.30
2023-03-26T10:28:28.289Z,24.95
2023-03-26T10:29:53.765Z,24.63
2023-03-26T10:31:00.929Z,26.12
2023-03-26T10:32:22.134Z,28.30
2023-03-26T10:33:39.313Z,29.75
2023-03-26T10:35:04.404Z,29.99
2023-03-26T10:36:27.541Z,29.25
2023-03-26T10:37:37.226Z,28.58
2023-03-26T10:39:02.671Z,28.00
2023-03-26T10:40:24.834Z,27.11
2023-03-26T10:42:05.253Z,27.24
2023-03-26T10:43:18.032Z,26.90
2023-03-26T10:44:22.989Z,27.49
2023-03-26T10:45:41.655Z,27.18
2023-03-26T10:47:09.495Z,26.85
2023-03-26T10:48:34.315Z,27.69
2023-03-26T10:50:11.972Z,28.38
2023-03-26T10:51:33.245Z,29.29
2023-03-26T10:52:58.751Z,29.27
2023-03-26T10:54:16.526Z,28.40
2023-03-26T10:55:25.334Z,28.67
2023-03-26T10:56:58.393Z,28.88
2023-03-26T10:58:18.682Z,28.00
2023-03-26T10:59:22.442Z,27.22
2023-03-26T11:00:29.707Z,26.62
2023-03-26T11:01:52.292Z,25.72
2023-03-26T11:03:22.775Z,26.20
2023-03-26T11:04:58.212Z,25.02
2023-03-26T11:06:17.820Z,25.22
2023-03-26T11:07:28.208Z,24.01
2023-03-26T11:08:35.160Z,24.48
2023-03-26T11:10:03.620Z,24.02
2023-03-26T11:11:31.294Z,23.21
2023-03-26T11:12:58.304Z,23.38
2023-03-26T11:14:33.761Z,25.52
2023-03-26T11:15:51.892Z,24.75
2023-03-26T11:17:40.884Z,25.40
2023-03-26T11:18:43.355Z,25.71
2023-03-26T11:19:55.922Z,25.45
2023-03-26T11:21:20.843Z,25.15
2023-03-26T11:22:37.055Z,25.38
2023-03-26T11:24:06.001Z,25.34
2023-03-26T11:25:39.187Z,26.20
2023-03-26T11:26:56.608Z,25.72
2023-03-26T11:28:03.250Z,26.27
2023-03-26T11:29:31.322Z,27.08
2023-03-26T11:31:13.607Z,27.16
2023-03-26T11:32:28.722Z,25.96
2023-03-26T11:33:37.281Z,27.02
2023-03-26T11:35:15.606Z,26.59
2023-03-26T11:36:23.167Z,25.69
2023-03-26T11:37:46.568Z,26.24
2023-03-26T11:38:51.168Z,26.79
2023-03-26T11:39:59.569Z,26.81
2023-03-26T11:41:03.108Z,27.49
2023-03-26T11:42:28.926Z,26.64
2023-03-26T11:43:36.453Z,26.54
2023-03-26T11:44:59.491Z,27.05
2023-03-26T11:46:07.637Z,27.83
2023-03-26T11:47:13.983Z,27.22
2023-03-26T11:48:28.375Z,27.51
2023-03-26T11:49:32.097Z,27.74
2023-03-26T11:50:36.923Z,27.89
2023-03-26T11:51:42.268Z,27.51
2023-03-26T11:52:47.114Z,27.71
2023-03-26T11:53:50.942Z,27.55
2023-03-26T11:54:54.767Z,27.92
2023-03-26T11:56:02.114Z,26.97
2023-03-26T11:57:14.325Z,26.66
2023-03-26T11:59:07.356Z,27.60
2023-03-26T12:00:20.069Z,27.14
2023-03-26T12:01:33.956Z,28.13
2023-03-26T12:02:40.722Z,28.55
2023-03-26T12:03:45.016Z,28.63
2023-03-26T12:04:52.367Z,28.33
2023-03-26T12:06:00.302Z,28.53
2023-03-26T12:07:23.108Z,28.60
2023-03-26T12:08:33.608Z,28.36
2023-03-26T12:09:40.968Z,27.83
2023-03-26T12:10:45.032Z,27.77
2023-03-26T12:11:49.797Z,27.55
2023-03-26T12:12:58.057Z,27.75
2023-03-26T12:14:05.837Z,27.27
2023-03-26T12:15:16.863Z,27.40
2023-03-26T12:16:21.868Z,27.31
2023-03-26T12:17:32.580Z,27.52
2023-03-26T12:18:36.824Z,26.58
2023-03-26T12:19:45.078Z,26.18
2023-03-26T12:20:48.802Z,25.94
2023-03-26T12:21:53.592Z,25.74
2023-03-26T12:23:01.226Z,26.59
2023-03-26T12:24:30.282Z,27.71
2023-03-26T12:25:38.369Z,27.01
2023-03-26T12:26:49.609Z,26.85
2023-03-26T12:28:18.341Z,26.54
2023-03-26T12:29:22.610Z,26.33
2023-03-26T12:30:28.182Z,26.22
2023-03-26T12:31:32.255Z,26.76
2023-03-26T12:32:46.295Z,26.90
2023-03-26T12:34:17.787Z,26.97
2023-03-26T12:35:28.262Z,26.63
2023-03-26T12:36:36.799Z,26.45
2023-03-26T12:37:45.199Z,26.11
2023-03-26T12:40:05.894Z,26.29
2023-03-26T12:40:35.186Z,26.01
2023-03-26T12:44:42.622Z,26.08
2023-03-26T12:44:56.033Z,26.11
2023-03-26T12:44:58.936Z,26.45
2023-03-26T12:47:56.097Z,26.23
2023-03-26T12:47:58.182Z,27.89
2023-03-26T12:49:07.001Z,27.12
2023-03-26T12:50:16.542Z,26.63
2023-03-26T12:52:00.145Z,26.82
2023-03-26T12:53:28.389Z,26.74
2023-03-26T12:55:12.519Z,26.32
2023-03-26T12:56:37.628Z,26.08
2023-03-26T12:58:22.647Z,26.35
2023-03-26T12:59:39.624Z,26.33
2023-03-26T13:01:03.637Z,27.34
2023-03-26T13:02:21.337Z,27.31
2023-03-26T13:03:45.249Z,28.15
2023-03-26T13:05:15.487Z,27.88
2023-03-26T13:07:00.037Z,28.02
2023-03-26T13:08:40.298Z,28.33
2023-03-26T13:09:47.416Z,29.50
2023-03-26T13:11:08.791Z,29.12
2023-03-26T13:12:27.663Z,28.46
2023-03-26T13:14:16.946Z,28.94
2023-03-26T13:15:42.637Z,28.88
2023-03-26T13:16:52.635Z,29.58
2023-03-26T13:18:15.130Z,30.43
2023-03-26T13:19:26.408Z,30.95
2023-03-26T13:20:38.456Z,32.36
2023-03-26T13:21:58.224Z,31.94
2023-03-26T13:23:03.770Z,31.68
2023-03-26T13:24:28.971Z,32.70
2023-03-26T13:25:47.760Z,34.17
2023-03-26T13:27:30.933Z,34.69
2023-03-26T13:28:56.201Z,35.55
2023-03-26T13:30:02.252Z,35.65
2023-03-26T13:31:32.669Z,36.54
2023-03-26T13:33:22.033Z,37.55
2023-03-26T13:34:32.142Z,36.79
2023-03-26T13:35:41.177Z,36.55
2023-03-26T13:37:01.509Z,36.94
2023-03-26T13:38:37.361Z,37.00
2023-03-26T13:39:51.161Z,37.35
2023-03-26T13:41:32.515Z,36.97
2023-03-26T13:42:43.390Z,37.58
2023-03-26T13:43:54.189Z,37.87
2023-03-26T13:45:11.043Z,39.05
2023-03-26T13:46:28.940Z,38.81
2023-03-26T13:47:37.352Z,39.35
2023-03-26T13:49:13.925Z,39.54
2023-03-26T13:50:26.355Z,39.67
2023-03-26T13:51:32.984Z,39.57
2023-03-26T13:52:41.526Z,40.48
2023-03-26T13:53:49.447Z,39.86
2023-03-26T13:55:38.468Z,39.56
2023-03-26T13:56:48.898Z,40.20
2023-03-26T13:58:10.303Z,40.20
2023-03-26T13:59:17.524Z,40.24
2023-03-26T14:00:28.136Z,40.03
2023-03-26T14:01:37.226Z,40.14
2023-03-26T14:02:42.386Z,39.84
2023-03-26T14:04:00.809Z,39.86
2023-03-26T14:05:44.192Z,39.72
2023-03-26T14:07:16.313Z,40.61
2023-03-26T14:08:32.836Z,40.00
2023-03-26T14:09:52.578Z,40.28
2023-03-26T14:11:11.935Z,40.18
2023-03-26T14:12:26.331Z,40.44
2023-03-26T14:13:52.977Z,40.71
2023-03-26T14:15:02.888Z,40.10
2023-03-26T14:16:23.942Z,40.62
2023-03-26T14:17:49.194Z,40.06
2023-03-26T14:19:37.883Z,42.08
2023-03-26T14:21:01.887Z,41.90
2023-03-26T14:22:39.015Z,41.81
2023-03-26T14:24:01.684Z,42.04
2023-03-26T14:25:27.238Z,41.19
2023-03-26T14:27:12.432Z,41.43
2023-03-26T14:28:35.821Z,41.46
2023-03-26T14:29:57.159Z,41.37
2023-03-26T14:31:10.140Z,41.11
2023-03-26T14:32:34.639Z,40.67
2023-03-26T14:34:19.077Z,41.10
2023-03-26T14:35:53.692Z,41.91
2023-03-26T14:37:09.732Z,41.36
2023-03-26T14:42:46.609Z,42.03
2023-03-26T14:44:12.474Z,41.73
2023-03-26T14:45:34.775Z,41.97
2023-03-26T14:47:00.079Z,41.45
2023-03-26T14:48:07.866Z,40.85
2023-03-26T14:49:52.982Z,41.70
2023-03-26T14:51:21.105Z,41.73
2023-03-26T14:52:52.591Z,41.33
2023-03-26T14:54:17.338Z,40.63
2023-03-26T14:55:32.992Z,41.41
2023-03-26T14:58:53.436Z,40.03
2023-03-26T15:00:12.366Z,40.49
2023-03-26T15:01:46.984Z,40.23
2023-03-26T15:03:39.686Z,40.97
2023-03-26T15:05:15.341Z,41.51
2023-03-26T15:06:47.043Z,40.53
2023-03-26T15:08:33.710Z,40.45
2023-03-26T15:10:06.953Z,40.90
2023-03-26T15:11:31.730Z,42.05
2023-03-26T15:12:59.708Z,42.16
2023-03-26T15:14:21.850Z,42.13
2023-03-26T15:15:35.435Z,42.13
2023-03-26T15:17:03.496Z,42.78
2023-03-26T15:18:51.233Z,41.09
2023-03-26T15:20:32.543Z,40.47
2023-03-26T15:21:44.372Z,41.19
2023-03-26T15:23:12.470Z,41.80
2023-03-26T15:24:31.293Z,43.37
2023-03-26T15:25:53.475Z,42.85
2023-03-26T15:27:35.405Z,42.79
2023-03-26T15:29:20.081Z,42.53
2023-03-26T15:30:57.314Z,41.93
2023-03-26T15:32:26.490Z,42.41
2023-03-26T15:33:50.534Z,41.67
2023-03-26T15:35:26.564Z,42.30
2023-03-26T15:37:07.345Z,42.01
2023-03-26T15:38:41.530Z,42.27
2023-03-26T15:40:12.019Z,42.62
2023-03-26T15:41:21.395Z,41.76
2023-03-26T15:42:54.547Z,42.27
2023-03-26T15:44:24.672Z,42.00
2023-03-26T15:45:43.845Z,42.22
2023-03-26T15:47:27.848Z,42.82
2023-03-26T15:49:12.705Z,42.78
2023-03-26T15:50:43.890Z,42.37
2023-03-26T15:52:06.836Z,41.87
2023-03-26T15:53:19.109Z,42.86
2023-03-26T15:54:39.612Z,42.68
2023-03-26T15:56:09.474Z,42.09
2023-03-26T15:57:20.936Z,42.18
2023-03-26T15:58:35.562Z,42.56
2023-03-26T16:00:16.181Z,42.70
2023-03-26T16:01:34.459Z,43.40
2023-03-26T16:03:10.985Z,43.92
2023-03-26T16:04:51.993Z,43.74
2023-03-26T16:06:08.909Z,43.35
2023-03-26T16:07:44.698Z,44.25
2023-03-26T16:09:13.672Z,44.23
2023-03-26T16:10:46.899Z,45.21
2023-03-26T16:12:00.328Z,44.81
2023-03-26T16:13:26.878Z,44.79
2023-03-26T16:14:36.870Z,45.04
2023-03-26T16:15:40.914Z,44.81
2023-03-26T16:17:03.440Z,44.95
2023-03-26T16:18:16.517Z,44.53
2023-03-26T16:19:21.744Z,44.98
2023-03-26T16:20:35.581Z,46.01
2023-03-26T16:21:58.573Z,45.39
2023-03-26T16:23:05.649Z,45.43
2023-03-26T16:24:11.285Z,45.17
2023-03-26T16:25:32.484Z,45.24
2023-03-26T16:26:44.786Z,45.28
2023-03-26T16:27:48.570Z,45.57
2023-03-26T16:28:55.647Z,45.40
2023-03-26T16:30:02.321Z,46.26
2023-03-26T16:31:36.483Z,46.36
2023-03-26T16:32:35.061Z,46.32
2023-03-26T16:34:02.792Z,47.19
2023-03-26T16:35:15.336Z,46.43
2023-03-26T16:36:37.262Z,46.23
2023-03-26T16:37:44.729Z,46.24
2023-03-26T16:38:55.108Z,46.39
2023-03-26T16:40:19.210Z,46.87
2023-03-26T16:41:30.052Z,46.51
2023-03-26T16:43:09.587Z,46.95
2023-03-26T16:44:15.960Z,47.26
2023-03-26T16:45:31.620Z,47.37